sensor_id;sensor_type;location;lat;lon;timestamp;temperature;humidity
9450;DHT22;4763;48.370;10.874;2024-01-30T02:37:58;-1.60;99.90
9450;DHT22;4763;48.370;10.874;2024-01-30T02:40:25;-1.50;99.90
9450;DHT22;4763;48.370;10.874;2024-01-30T02:42:52;-1.50;99.90
9450;DHT22;4763;48.370;10.874;2024-01-30T02:45:18;-1.50;99.90
9450;DHT22;4763;48.370;10.874;2024-01-30T02:47:46;-1.60;99.90
9450;DHT22;4763;48.370;10.874;2024-01-30T02:50:12;-1.60;99.90
9450;DHT22;4763;48.370;10.874;2024-01-30T02:52:40;-1.60;99.90
9450;DHT22;4763;48.370;10.874;2024-01-30T02:55:12;-1.60;99.90
9450;DHT22;4763;48.370;10.874;2024-01-30T02:57:39;-1.60;99.90
9450;DHT22;4763;48.370;10.874;2024-01-30T03:00:06;-1.60;99.90
9450;DHT22;4763;48.370;10.874;2024-01-30T03:02:35;-1.50;99.90
9450;DHT22;4763;48.370;10.874;2024-01-30T03:05:02;-1.50;99.90
9450;DHT22;4763;48.370;10.874;2024-01-30T03:07:29;-1.40;99.90
9450;DHT22;4763;48.370;10.874;2024-01-30T03:09:56;-1.40;99.90
9450;DHT22;4763;48.370;10.874;2024-01-30T03:12:24;-1.50;99.90
9450;DHT22;4763;48.370;10.874;2024-01-30T03:14:51;-1.50;99.90
9450;DHT22;4763;48.370;10.874;2024-01-30T03:17:19;-1.50;99.90
9450;DHT22;4763;48.370;10.874;2024-01-30T03:19:45;-1.50;99.90
9450;DHT22;4763;48.370;10.874;2024-01-30T03:22:13;-1.50;99.90
9450;DHT22;4763;48.370;10.874;2024-01-30T03:24:39;-1.60;99.90
9450;DHT22;4763;48.370;10.874;2024-01-30T03:27:08;-1.60;99.90
9450;DHT22;4763;48.370;10.874;2024-01-30T03:29:36;-1.60;99.90
9450;DHT22;4763;48.370;10.874;2024-01-30T03:32:03;-1.60;99.90
9450;DHT22;4763;48.370;10.874;2024-01-30T03:34:30;-1.60;99.90
9450;DHT22;4763;48.370;10.874;2024-01-30T03:36:57;-1.60;99.90
9450;DHT22;4763;48.370;10.874;2024-01-30T03:39:24;-1.60;99.90
9450;DHT22;4763;48.370;10.874;2024-01-30T03:41:51;-1.60;99.90
9450;DHT22;4763;48.370;10.874;2024-01-30T03:44:18;-1.60;99.90
9450;DHT22;4763;48.370;10.874;2024-01-30T03:46:46;-1.70;99.90
9450;DHT22;4763;48.370;10.874;2024-01-30T03:49:13;-1.60;99.90
9450;DHT22;4763;48.370;10.874;2024-01-30T03:51:39;-1.70;99.90
9450;DHT22;4763;48.370;10.874;2024-01-30T03:54:08;-1.70;99.90
9450;DHT22;4763;48.370;10.874;2024-01-30T03:56:35;-1.70;99.90
9450;DHT22;4763;48.370;10.874;2024-01-30T03:59:02;-1.70;99.90
9450;DHT22;4763;48.370;10.874;2024-01-30T04:01:29;-1.70;99.90
9450;DHT22;4763;48.370;10.874;2024-01-30T04:03:57;-1.70;99.90
9450;DHT22;4763;48.370;10.874;2024-01-30T04:06:24;-1.70;99.90
9450;DHT22;4763;48.370;10.874;2024-01-30T04:08:51;-1.70;99.90
9450;DHT22;4763;48.370;10.874;2024-01-30T04:11:18;-1.70;99.90
9450;DHT22;4763;48.370;10.874;2024-01-30T04:13:46;-1.70;99.90
9450;DHT22;4763;48.370;10.874;2024-01-30T04:16:19;-1.70;99.90
9450;DHT22;4763;48.370;10.874;2024-01-30T04:18:47;-1.70;99.90
9450;DHT22;4763;48.370;10.874;2024-01-30T04:21:15;-1.70;99.90
9450;DHT22;4763;48.370;10.874;2024-01-30T04:23:42;-1.80;99.90
9450;DHT22;4763;48.370;10.874;2024-01-30T04:26:09;-1.70;99.90
9450;DHT22;4763;48.370;10.874;2024-01-30T04:28:36;-1.70;99.90
9450;DHT22;4763;48.370;10.874;2024-01-30T04:31:03;-1.70;99.90
9450;DHT22;4763;48.370;10.874;2024-01-30T04:33:30;-1.70;99.90
9450;DHT22;4763;48.370;10.874;2024-01-30T04:35:57;-1.70;99.90
9450;DHT22;4763;48.370;10.874;2024-01-30T04:38:25;-1.70;99.90
9450;DHT22;4763;48.370;10.874;2024-01-30T04:40:52;-1.70;99.90
9450;DHT22;4763;48.370;10.874;2024-01-30T04:43:19;-1.70;99.90
9450;DHT22;4763;48.370;10.874;2024-01-30T04:45:46;-1.70;99.90
9450;DHT22;4763;48.370;10.874;2024-01-30T04:48:13;-1.70;99.90
9450;DHT22;4763;48.370;10.874;2024-01-30T04:50:40;-1.70;99.90
9450;DHT22;4763;48.370;10.874;2024-01-30T04:53:06;-1.70;99.90
9450;DHT22;4763;48.370;10.874;2024-01-30T04:55:35;-1.70;99.90
9450;DHT22;4763;48.370;10.874;2024-01-30T04:58:02;-1.70;99.90
9450;DHT22;4763;48.370;10.874;2024-01-30T05:00:29;-1.70;99.90
9450;DHT22;4763;48.370;10.874;2024-01-30T05:02:56;-1.70;99.90
9450;DHT22;4763;48.370;10.874;2024-01-30T05:05:23;-1.70;99.90
9450;DHT22;4763;48.370;10.874;2024-01-30T05:07:49;-1.70;99.90
9450;DHT22;4763;48.370;10.874;2024-01-30T05:10:16;-1.70;99.90
9450;DHT22;4763;48.370;10.874;2024-01-30T05:12:45;-1.70;99.90
9450;DHT22;4763;48.370;10.874;2024-01-30T05:15:11;-1.70;99.90
9450;DHT22;4763;48.370;10.874;2024-01-30T05:17:38;-1.70;99.90
9450;DHT22;4763;48.370;10.874;2024-01-30T05:20:06;-1.70;99.90
9450;DHT22;4763;48.370;10.874;2024-01-30T05:22:34;-1.70;99.90
9450;DHT22;4763;48.370;10.874;2024-01-30T05:25:05;-1.70;99.90
9450;DHT22;4763;48.370;10.874;2024-01-30T05:27:32;-1.70;99.90
9450;DHT22;4763;48.370;10.874;2024-01-30T05:30:00;-1.70;99.90
9450;DHT22;4763;48.370;10.874;2024-01-30T05:32:27;-1.60;99.90
9450;DHT22;4763;48.370;10.874;2024-01-30T05:34:54;-1.70;99.90
9450;DHT22;4763;48.370;10.874;2024-01-30T05:37:21;-1.70;99.90
9450;DHT22;4763;48.370;10.874;2024-01-30T05:39:48;-1.60;99.90
9450;DHT22;4763;48.370;10.874;2024-01-30T05:42:15;-1.70;99.90
9450;DHT22;4763;48.370;10.874;2024-01-30T05:44:42;-1.70;99.90
9450;DHT22;4763;48.370;10.874;2024-01-30T05:47:10;-1.70;99.90
9450;DHT22;4763;48.370;10.874;2024-01-30T05:49:37;-1.70;99.90
9450;DHT22;4763;48.370;10.874;2024-01-30T05:52:05;-1.70;99.90
9450;DHT22;4763;48.370;10.874;2024-01-30T05:54:32;-1.70;99.90
9450;DHT22;4763;48.370;10.874;2024-01-30T05:56:59;-1.50;99.90
9450;DHT22;4763;48.370;10.874;2024-01-30T05:59:26;-1.50;99.90
9450;DHT22;4763;48.370;10.874;2024-01-30T06:01:53;-1.50;99.90
9450;DHT22;4763;48.370;10.874;2024-01-30T06:04:24;-1.50;99.90
9450;DHT22;4763;48.370;10.874;2024-01-30T06:06:50;-1.60;99.90
9450;DHT22;4763;48.370;10.874;2024-01-30T06:09:17;-1.60;99.90
9450;DHT22;4763;48.370;10.874;2024-01-30T06:11:45;-1.50;99.90
9450;DHT22;4763;48.370;10.874;2024-01-30T06:14:12;-1.60;99.90
9450;DHT22;4763;48.370;10.874;2024-01-30T06:16:38;-1.60;99.90
9450;DHT22;4763;48.370;10.874;2024-01-30T06:19:05;-1.60;99.90
9450;DHT22;4763;48.370;10.874;2024-01-30T06:21:34;-1.70;99.90
9450;DHT22;4763;48.370;10.874;2024-01-30T06:24:02;-1.70;99.90
9450;DHT22;4763;48.370;10.874;2024-01-30T06:26:29;-1.70;99.90
9450;DHT22;4763;48.370;10.874;2024-01-30T06:28:56;-1.80;99.90
9450;DHT22;4763;48.370;10.874;2024-01-30T06:31:22;-1.80;99.90
9450;DHT22;4763;48.370;10.874;2024-01-30T06:33:50;-1.80;99.90
9450;DHT22;4763;48.370;10.874;2024-01-30T06:36:17;-1.80;99.90
9450;DHT22;4763;48.370;10.874;2024-01-30T06:38:45;-1.80;99.90
9450;DHT22;4763;48.370;10.874;2024-01-30T06:41:12;-1.80;99.90
9450;DHT22;4763;48.370;10.874;2024-01-30T06:43:39;-1.80;99.90
9450;DHT22;4763;48.370;10.874;2024-01-30T06:46:06;-1.80;99.90
9450;DHT22;4763;48.370;10.874;2024-01-30T06:48:33;-1.80;99.90
9450;DHT22;4763;48.370;10.874;2024-01-30T06:51:00;-1.80;99.90
9450;DHT22;4763;48.370;10.874;2024-01-30T06:53:26;-1.80;99.90
9450;DHT22;4763;48.370;10.874;2024-01-30T06:55:56;-1.80;99.90
9450;DHT22;4763;48.370;10.874;2024-01-30T06:58:23;-1.80;99.90
9450;DHT22;4763;48.370;10.874;2024-01-30T07:00:50;-1.90;99.90
9450;DHT22;4763;48.370;10.874;2024-01-30T07:03:16;-1.80;99.90
9450;DHT22;4763;48.370;10.874;2024-01-30T07:05:43;-1.80;99.90
9450;DHT22;4763;48.370;10.874;2024-01-30T07:08:10;-1.80;99.90
9450;DHT22;4763;48.370;10.874;2024-01-30T07:10:37;-1.80;99.90
9450;DHT22;4763;48.370;10.874;2024-01-30T07:13:05;-1.80;99.90
9450;DHT22;4763;48.370;10.874;2024-01-30T07:15:34;-1.70;99.90
9450;DHT22;4763;48.370;10.874;2024-01-30T07:18:02;-1.70;99.90
9450;DHT22;4763;48.370;10.874;2024-01-30T07:20:30;-1.70;99.90
9450;DHT22;4763;48.370;10.874;2024-01-30T07:22:58;-1.70;99.90
9450;DHT22;4763;48.370;10.874;2024-01-30T07:25:25;-1.70;99.90
9450;DHT22;4763;48.370;10.874;2024-01-30T07:27:52;-1.60;99.90
9450;DHT22;4763;48.370;10.874;2024-01-30T07:30:20;-1.60;99.90
9450;DHT22;4763;48.370;10.874;2024-01-30T07:32:47;-1.50;99.90
9450;DHT22;4763;48.370;10.874;2024-01-30T07:35:15;-1.50;99.90
9450;DHT22;4763;48.370;10.874;2024-01-30T07:37:41;-1.40;99.90
9450;DHT22;4763;48.370;10.874;2024-01-30T07:40:09;-1.30;99.90
9450;DHT22;4763;48.370;10.874;2024-01-30T07:42:36;-1.30;99.90
9450;DHT22;4763;48.370;10.874;2024-01-30T07:45:03;-1.20;99.90
9450;DHT22;4763;48.370;10.874;2024-01-30T07:47:32;-1.10;99.90
9450;DHT22;4763;48.370;10.874;2024-01-30T07:49:59;-1.00;99.90
9450;DHT22;4763;48.370;10.874;2024-01-30T07:52:25;-0.90;99.90
9450;DHT22;4763;48.370;10.874;2024-01-30T07:54:53;-0.80;99.90
9450;DHT22;4763;48.370;10.874;2024-01-30T07:57:20;-0.70;99.90
9450;DHT22;4763;48.370;10.874;2024-01-30T07:59:47;-0.60;99.90
9450;DHT22;4763;48.370;10.874;2024-01-30T08:02:14;-0.50;99.90
9450;DHT22;4763;48.370;10.874;2024-01-30T08:04:42;-0.30;99.90
9450;DHT22;4763;48.370;10.874;2024-01-30T08:07:14;-0.10;99.90
9450;DHT22;4763;48.370;10.874;2024-01-30T08:09:41;0.10;99.90
9450;DHT22;4763;48.370;10.874;2024-01-30T08:12:08;0.30;99.90
9450;DHT22;4763;48.370;10.874;2024-01-30T08:14:35;0.40;99.90
9450;DHT22;4763;48.370;10.874;2024-01-30T08:17:02;0.50;99.90
9450;DHT22;4763;48.370;10.874;2024-01-30T08:19:29;0.60;99.90
9450;DHT22;4763;48.370;10.874;2024-01-30T08:21:57;0.80;99.90
9450;DHT22;4763;48.370;10.874;2024-01-30T08:24:24;1.00;99.90
9450;DHT22;4763;48.370;10.874;2024-01-30T08:26:51;1.10;99.90
9450;DHT22;4763;48.370;10.874;2024-01-30T08:29:18;1.10;99.90
9450;DHT22;4763;48.370;10.874;2024-01-30T08:31:45;1.20;99.90
9450;DHT22;4763;48.370;10.874;2024-01-30T08:34:12;1.40;99.90
9450;DHT22;4763;48.370;10.874;2024-01-30T08:36:39;1.50;99.90
9450;DHT22;4763;48.370;10.874;2024-01-30T08:39:07;1.60;99.90
9450;DHT22;4763;48.370;10.874;2024-01-30T08:41:34;1.70;99.90
9450;DHT22;4763;48.370;10.874;2024-01-30T08:44:01;1.90;99.90
9450;DHT22;4763;48.370;10.874;2024-01-30T08:46:31;2.00;99.90
9450;DHT22;4763;48.370;10.874;2024-01-30T08:48:59;2.10;99.90
9450;DHT22;4763;48.370;10.874;2024-01-30T08:51:26;2.20;99.90
9450;DHT22;4763;48.370;10.874;2024-01-30T08:53:53;2.30;99.90
9450;DHT22;4763;48.370;10.874;2024-01-30T08:56:21;2.50;99.90
9450;DHT22;4763;48.370;10.874;2024-01-30T08:58:49;2.60;99.90
9450;DHT22;4763;48.370;10.874;2024-01-30T09:01:16;2.80;99.90
9450;DHT22;4763;48.370;10.874;2024-01-30T09:03:48;2.90;99.90
9450;DHT22;4763;48.370;10.874;2024-01-30T09:06:15;3.10;99.90
9450;DHT22;4763;48.370;10.874;2024-01-30T09:08:42;3.20;99.90
9450;DHT22;4763;48.370;10.874;2024-01-30T09:11:15;3.40;99.90
9450;DHT22;4763;48.370;10.874;2024-01-30T09:13:46;3.60;99.90
9450;DHT22;4763;48.370;10.874;2024-01-30T09:16:13;3.70;99.90
9450;DHT22;4763;48.370;10.874;2024-01-30T09:18:41;4.00;99.90
9450;DHT22;4763;48.370;10.874;2024-01-30T09:21:22;4.20;99.90
9450;DHT22;4763;48.370;10.874;2024-01-30T09:42:38;6.00;99.90
9450;DHT22;4763;48.370;10.874;2024-01-30T09:45:06;6.00;99.90
9450;DHT22;4763;48.370;10.874;2024-01-30T09:47:39;6.50;99.90
9450;DHT22;4763;48.370;10.874;2024-01-30T09:50:10;6.60;99.90
9450;DHT22;4763;48.370;10.874;2024-01-30T09:52:54;6.60;99.90
9450;DHT22;4763;48.370;10.874;2024-01-30T09:55:22;6.60;99.90
9450;DHT22;4763;48.370;10.874;2024-01-30T09:57:50;6.70;99.90
9450;DHT22;4763;48.370;10.874;2024-01-30T10:00:17;6.90;99.90
9450;DHT22;4763;48.370;10.874;2024-01-30T10:02:47;6.90;99.90
9450;DHT22;4763;48.370;10.874;2024-01-30T10:05:17;7.10;99.90
9450;DHT22;4763;48.370;10.874;2024-01-30T10:07:53;7.40;99.90
9450;DHT22;4763;48.370;10.874;2024-01-30T10:10:22;7.60;99.90
9450;DHT22;4763;48.370;10.874;2024-01-30T10:12:50;7.70;99.90
9450;DHT22;4763;48.370;10.874;2024-01-30T10:15:17;7.70;99.90
9450;DHT22;4763;48.370;10.874;2024-01-30T10:17:45;7.90;99.90
9450;DHT22;4763;48.370;10.874;2024-01-30T10:20:12;7.90;99.90
9450;DHT22;4763;48.370;10.874;2024-01-30T10:22:40;7.90;99.90
9450;DHT22;4763;48.370;10.874;2024-01-30T10:25:09;8.10;99.90
9450;DHT22;4763;48.370;10.874;2024-01-30T10:27:36;8.20;99.90
9450;DHT22;4763;48.370;10.874;2024-01-30T10:30:05;8.30;99.90
9450;DHT22;4763;48.370;10.874;2024-01-30T10:32:33;8.60;99.90
9450;DHT22;4763;48.370;10.874;2024-01-30T10:35:00;8.70;99.90
9450;DHT22;4763;48.370;10.874;2024-01-30T10:37:28;8.70;99.90
9450;DHT22;4763;48.370;10.874;2024-01-30T10:40:03;8.60;99.90
9450;DHT22;4763;48.370;10.874;2024-01-30T10:42:32;8.50;99.90
9450;DHT22;4763;48.370;10.874;2024-01-30T10:45:02;8.40;99.90
9450;DHT22;4763;48.370;10.874;2024-01-30T10:47:35;8.30;99.90
9450;DHT22;4763;48.370;10.874;2024-01-30T10:50:03;8.20;99.90
9450;DHT22;4763;48.370;10.874;2024-01-30T10:52:33;8.20;99.90
9450;DHT22;4763;48.370;10.874;2024-01-30T10:55:01;8.30;99.90
9450;DHT22;4763;48.370;10.874;2024-01-30T10:57:34;8.40;99.90
9450;DHT22;4763;48.370;10.874;2024-01-30T11:00:04;8.40;99.90
9450;DHT22;4763;48.370;10.874;2024-01-30T11:02:38;8.30;99.90
9450;DHT22;4763;48.370;10.874;2024-01-30T11:05:05;8.40;99.90
9450;DHT22;4763;48.370;10.874;2024-01-30T11:07:34;8.40;99.90
9450;DHT22;4763;48.370;10.874;2024-01-30T11:10:02;8.50;99.90
9450;DHT22;4763;48.370;10.874;2024-01-30T11:12:31;8.40;99.90
9450;DHT22;4763;48.370;10.874;2024-01-30T11:15:03;8.50;99.90
9450;DHT22;4763;48.370;10.874;2024-01-30T11:17:42;8.60;99.90
9450;DHT22;4763;48.370;10.874;2024-01-30T11:20:10;8.70;99.90
9450;DHT22;4763;48.370;10.874;2024-01-30T11:22:41;8.80;99.90
9450;DHT22;4763;48.370;10.874;2024-01-30T11:25:12;8.80;99.90
9450;DHT22;4763;48.370;10.874;2024-01-30T11:27:39;8.80;99.90
9450;DHT22;4763;48.370;10.874;2024-01-30T11:30:07;8.80;99.90
9450;DHT22;4763;48.370;10.874;2024-01-30T11:32:34;8.80;99.90
9450;DHT22;4763;48.370;10.874;2024-01-30T11:35:04;8.90;99.90
9450;DHT22;4763;48.370;10.874;2024-01-30T11:37:37;8.90;99.90
9450;DHT22;4763;48.370;10.874;2024-01-30T11:40:05;9.00;99.90
9450;DHT22;4763;48.370;10.874;2024-01-30T11:42:32;9.00;99.90
9450;DHT22;4763;48.370;10.874;2024-01-30T11:45:01;9.10;99.90
9450;DHT22;4763;48.370;10.874;2024-01-30T11:47:29;9.10;99.90
9450;DHT22;4763;48.370;10.874;2024-01-30T11:49:56;9.10;99.90
9450;DHT22;4763;48.370;10.874;2024-01-30T11:52:25;9.10;99.90
9450;DHT22;4763;48.370;10.874;2024-01-30T11:54:52;9.10;99.90
9450;DHT22;4763;48.370;10.874;2024-01-30T11:57:19;9.20;99.90
9450;DHT22;4763;48.370;10.874;2024-01-30T11:59:46;9.20;99.90
9450;DHT22;4763;48.370;10.874;2024-01-30T12:02:15;9.30;99.90
9450;DHT22;4763;48.370;10.874;2024-01-30T12:04:43;9.30;99.90
9450;DHT22;4763;48.370;10.874;2024-01-30T12:07:13;9.30;99.90
9450;DHT22;4763;48.370;10.874;2024-01-30T12:09:52;9.30;99.90
9450;DHT22;4763;48.370;10.874;2024-01-30T12:12:19;9.30;99.90
9450;DHT22;4763;48.370;10.874;2024-01-30T12:14:46;9.40;99.90
9450;DHT22;4763;48.370;10.874;2024-01-30T12:17:23;9.40;99.90
9450;DHT22;4763;48.370;10.874;2024-01-30T12:19:50;9.50;99.90
9450;DHT22;4763;48.370;10.874;2024-01-30T12:22:23;9.50;99.90
9450;DHT22;4763;48.370;10.874;2024-01-30T12:24:51;9.60;99.90
9450;DHT22;4763;48.370;10.874;2024-01-30T12:27:18;9.70;99.90
9450;DHT22;4763;48.370;10.874;2024-01-30T12:29:45;9.80;99.90
9450;DHT22;4763;48.370;10.874;2024-01-30T12:32:15;9.80;99.90
9450;DHT22;4763;48.370;10.874;2024-01-30T12:34:42;9.90;99.90
9450;DHT22;4763;48.370;10.874;2024-01-30T12:37:09;10.00;99.90
9450;DHT22;4763;48.370;10.874;2024-01-30T12:39:37;10.10;99.90
9450;DHT22;4763;48.370;10.874;2024-01-30T12:42:05;10.10;99.90
9450;DHT22;4763;48.370;10.874;2024-01-30T12:44:33;10.20;99.90
9450;DHT22;4763;48.370;10.874;2024-01-30T12:47:03;10.20;99.90
9450;DHT22;4763;48.370;10.874;2024-01-30T12:49:30;10.20;99.90
9450;DHT22;4763;48.370;10.874;2024-01-30T12:51:58;10.30;99.90
9450;DHT22;4763;48.370;10.874;2024-01-30T12:54:25;10.30;99.90
9450;DHT22;4763;48.370;10.874;2024-01-30T12:56:52;10.30;99.90
9450;DHT22;4763;48.370;10.874;2024-01-30T12:59:21;10.50;99.90
9450;DHT22;4763;48.370;10.874;2024-01-30T13:01:48;10.80;99.90
9450;DHT22;4763;48.370;10.874;2024-01-30T13:04:15;10.90;99.90
9450;DHT22;4763;48.370;10.874;2024-01-30T13:06:42;10.90;99.90
9450;DHT22;4763;48.370;10.874;2024-01-30T13:09:09;11.00;99.90
9450;DHT22;4763;48.370;10.874;2024-01-30T13:11:35;11.20;99.90
9450;DHT22;4763;48.370;10.874;2024-01-30T13:14:02;11.30;99.90
9450;DHT22;4763;48.370;10.874;2024-01-30T13:16:30;11.50;99.90
9450;DHT22;4763;48.370;10.874;2024-01-30T13:18:57;11.60;99.90
9450;DHT22;4763;48.370;10.874;2024-01-30T13:21:24;11.70;99.90
9450;DHT22;4763;48.370;10.874;2024-01-30T13:23:51;11.70;99.90
9450;DHT22;4763;48.370;10.874;2024-01-30T13:26:19;11.80;99.90
9450;DHT22;4763;48.370;10.874;2024-01-30T13:28:46;12.00;99.90
9450;DHT22;4763;48.370;10.874;2024-01-30T13:31:14;12.20;99.90
9450;DHT22;4763;48.370;10.874;2024-01-30T13:33:42;12.40;99.90
9450;DHT22;4763;48.370;10.874;2024-01-30T13:36:12;12.50;99.90
9450;DHT22;4763;48.370;10.874;2024-01-30T13:38:39;12.70;99.90
9450;DHT22;4763;48.370;10.874;2024-01-30T13:41:06;13.00;99.90
9450;DHT22;4763;48.370;10.874;2024-01-30T13:43:33;13.00;99.90
9450;DHT22;4763;48.370;10.874;2024-01-30T13:46:00;13.10;99.90
9450;DHT22;4763;48.370;10.874;2024-01-30T13:48:27;13.00;99.90
9450;DHT22;4763;48.370;10.874;2024-01-30T13:50:55;12.90;99.90
9450;DHT22;4763;48.370;10.874;2024-01-30T13:53:22;12.90;99.90
9450;DHT22;4763;48.370;10.874;2024-01-30T13:55:49;12.90;99.90
9450;DHT22;4763;48.370;10.874;2024-01-30T13:58:15;12.80;99.90
9450;DHT22;4763;48.370;10.874;2024-01-30T14:00:42;12.70;99.90
9450;DHT22;4763;48.370;10.874;2024-01-30T14:03:09;12.70;99.90
9450;DHT22;4763;48.370;10.874;2024-01-30T14:05:36;12.80;99.90
9450;DHT22;4763;48.370;10.874;2024-01-30T14:08:05;12.80;99.90
9450;DHT22;4763;48.370;10.874;2024-01-30T14:10:33;12.80;99.90
9450;DHT22;4763;48.370;10.874;2024-01-30T14:13:00;12.90;99.90
9450;DHT22;4763;48.370;10.874;2024-01-30T14:15:26;12.90;99.90
9450;DHT22;4763;48.370;10.874;2024-01-30T14:17:53;12.90;99.90
9450;DHT22;4763;48.370;10.874;2024-01-30T14:20:20;12.90;99.90
9450;DHT22;4763;48.370;10.874;2024-01-30T14:22:47;12.90;99.90
9450;DHT22;4763;48.370;10.874;2024-01-30T14:25:16;12.80;99.90
9450;DHT22;4763;48.370;10.874;2024-01-30T14:27:42;12.80;99.90
9450;DHT22;4763;48.370;10.874;2024-01-30T14:30:10;12.80;99.90
9450;DHT22;4763;48.370;10.874;2024-01-30T14:32:37;12.80;99.90
9450;DHT22;4763;48.370;10.874;2024-01-30T14:35:06;12.80;99.90
9450;DHT22;4763;48.370;10.874;2024-01-30T14:37:34;12.70;99.90
9450;DHT22;4763;48.370;10.874;2024-01-30T14:40:02;12.60;99.90
9450;DHT22;4763;48.370;10.874;2024-01-30T14:42:30;12.50;99.90
9450;DHT22;4763;48.370;10.874;2024-01-30T14:44:57;12.60;99.90
9450;DHT22;4763;48.370;10.874;2024-01-30T14:47:26;12.60;99.90
9450;DHT22;4763;48.370;10.874;2024-01-30T14:49:53;12.30;99.90
9450;DHT22;4763;48.370;10.874;2024-01-30T14:52:21;12.30;99.90
9450;DHT22;4763;48.370;10.874;2024-01-30T14:54:50;12.10;99.90
9450;DHT22;4763;48.370;10.874;2024-01-30T14:57:17;11.90;99.90
9450;DHT22;4763;48.370;10.874;2024-01-30T14:59:45;11.80;99.90
9450;DHT22;4763;48.370;10.874;2024-01-30T15:02:13;11.60;99.90
9450;DHT22;4763;48.370;10.874;2024-01-30T15:04:41;11.50;99.90
9450;DHT22;4763;48.370;10.874;2024-01-30T15:07:08;11.40;99.90
9450;DHT22;4763;48.370;10.874;2024-01-30T15:09:35;11.20;99.90
9450;DHT22;4763;48.370;10.874;2024-01-30T15:12:04;11.00;99.90
9450;DHT22;4763;48.370;10.874;2024-01-30T15:14:34;10.90;99.90
9450;DHT22;4763;48.370;10.874;2024-01-30T15:17:03;10.80;99.90
9450;DHT22;4763;48.370;10.874;2024-01-30T15:19:33;10.70;99.90
9450;DHT22;4763;48.370;10.874;2024-01-30T15:22:01;10.60;99.90
9450;DHT22;4763;48.370;10.874;2024-01-30T15:24:30;10.50;99.90
9450;DHT22;4763;48.370;10.874;2024-01-30T15:26:57;10.30;99.90
9450;DHT22;4763;48.370;10.874;2024-01-30T15:29:27;10.20;99.90
9450;DHT22;4763;48.370;10.874;2024-01-30T15:31:54;10.00;99.90
9450;DHT22;4763;48.370;10.874;2024-01-30T15:34:22;9.80;99.90
9450;DHT22;4763;48.370;10.874;2024-01-30T15:36:50;9.70;99.90
9450;DHT22;4763;48.370;10.874;2024-01-30T15:39:18;9.50;99.90
9450;DHT22;4763;48.370;10.874;2024-01-30T15:41:45;9.40;99.90
9450;DHT22;4763;48.370;10.874;2024-01-30T15:44:11;9.20;99.90
9450;DHT22;4763;48.370;10.874;2024-01-30T15:46:38;9.10;99.90
9450;DHT22;4763;48.370;10.874;2024-01-30T15:49:05;8.90;99.90
9450;DHT22;4763;48.370;10.874;2024-01-30T15:51:33;8.80;99.90
9450;DHT22;4763;48.370;10.874;2024-01-30T15:54:01;8.60;99.90
9450;DHT22;4763;48.370;10.874;2024-01-30T15:56:28;8.50;99.90
9450;DHT22;4763;48.370;10.874;2024-01-30T15:58:55;8.40;99.90
9450;DHT22;4763;48.370;10.874;2024-01-30T16:01:22;8.20;99.90
9450;DHT22;4763;48.370;10.874;2024-01-30T16:03:49;8.10;99.90
9450;DHT22;4763;48.370;10.874;2024-01-30T16:06:16;8.00;99.90
9450;DHT22;4763;48.370;10.874;2024-01-30T16:08:44;7.90;99.90
9450;DHT22;4763;48.370;10.874;2024-01-30T16:11:11;7.80;99.90
9450;DHT22;4763;48.370;10.874;2024-01-30T16:13:38;7.50;99.90
9450;DHT22;4763;48.370;10.874;2024-01-30T16:16:06;7.40;99.90
9450;DHT22;4763;48.370;10.874;2024-01-30T16:18:33;7.30;99.90
9450;DHT22;4763;48.370;10.874;2024-01-30T16:21:00;7.20;99.90
9450;DHT22;4763;48.370;10.874;2024-01-30T16:23:27;7.20;99.90
9450;DHT22;4763;48.370;10.874;2024-01-30T16:26:11;7.00;99.90
9450;DHT22;4763;48.370;10.874;2024-01-30T16:28:38;7.00;99.90
9450;DHT22;4763;48.370;10.874;2024-01-30T16:31:05;6.90;99.90
9450;DHT22;4763;48.370;10.874;2024-01-30T16:33:32;6.80;99.90
9450;DHT22;4763;48.370;10.874;2024-01-30T16:35:59;6.70;99.90
9450;DHT22;4763;48.370;10.874;2024-01-30T16:38:26;6.70;99.90
9450;DHT22;4763;48.370;10.874;2024-01-30T16:40:53;6.60;99.90
9450;DHT22;4763;48.370;10.874;2024-01-30T16:43:21;6.50;99.90
9450;DHT22;4763;48.370;10.874;2024-01-30T16:45:48;6.30;99.90
9450;DHT22;4763;48.370;10.874;2024-01-30T16:48:15;6.30;99.90
9450;DHT22;4763;48.370;10.874;2024-01-30T16:50:43;6.20;99.90
9450;DHT22;4763;48.370;10.874;2024-01-30T16:53:10;6.10;99.90
9450;DHT22;4763;48.370;10.874;2024-01-30T16:55:37;6.00;99.90
9450;DHT22;4763;48.370;10.874;2024-01-30T16:58:04;5.90;99.90
9450;DHT22;4763;48.370;10.874;2024-01-30T17:00:32;5.90;99.90
9450;DHT22;4763;48.370;10.874;2024-01-30T17:02:59;5.70;99.90
9450;DHT22;4763;48.370;10.874;2024-01-30T17:05:26;5.60;99.90
9450;DHT22;4763;48.370;10.874;2024-01-30T17:07:54;5.60;99.90
9450;DHT22;4763;48.370;10.874;2024-01-30T17:10:21;5.50;99.90
9450;DHT22;4763;48.370;10.874;2024-01-30T17:12:47;5.50;99.90
9450;DHT22;4763;48.370;10.874;2024-01-30T17:15:14;5.40;99.90
9450;DHT22;4763;48.370;10.874;2024-01-30T17:17:43;5.40;99.90
9450;DHT22;4763;48.370;10.874;2024-01-30T17:20:10;5.30;99.90
9450;DHT22;4763;48.370;10.874;2024-01-30T17:22:38;5.20;99.90
9450;DHT22;4763;48.370;10.874;2024-01-30T17:25:06;5.20;99.90
9450;DHT22;4763;48.370;10.874;2024-01-30T17:27:33;5.00;99.90
9450;DHT22;4763;48.370;10.874;2024-01-30T17:30:00;5.00;99.90
9450;DHT22;4763;48.370;10.874;2024-01-30T17:32:27;5.00;99.90
9450;DHT22;4763;48.370;10.874;2024-01-30T17:34:55;5.00;99.90
9450;DHT22;4763;48.370;10.874;2024-01-30T17:37:22;4.90;99.90
9450;DHT22;4763;48.370;10.874;2024-01-30T17:39:49;4.90;99.90
9450;DHT22;4763;48.370;10.874;2024-01-30T17:42:16;4.80;99.90
9450;DHT22;4763;48.370;10.874;2024-01-30T17:44:47;4.80;99.90
9450;DHT22;4763;48.370;10.874;2024-01-30T17:47:14;4.70;99.90
9450;DHT22;4763;48.370;10.874;2024-01-30T17:49:41;4.70;99.90
9450;DHT22;4763;48.370;10.874;2024-01-30T17:52:09;4.60;99.90
9450;DHT22;4763;48.370;10.874;2024-01-30T17:54:36;4.60;99.90
9450;DHT22;4763;48.370;10.874;2024-01-30T17:57:03;4.50;99.90
9450;DHT22;4763;48.370;10.874;2024-01-30T17:59:30;4.50;99.90
9450;DHT22;4763;48.370;10.874;2024-01-30T18:01:57;4.40;99.90
9450;DHT22;4763;48.370;10.874;2024-01-30T18:04:24;4.40;99.90
9450;DHT22;4763;48.370;10.874;2024-01-30T18:06:52;4.40;99.90
9450;DHT22;4763;48.370;10.874;2024-01-30T18:09:21;4.30;99.90
9450;DHT22;4763;48.370;10.874;2024-01-30T18:11:48;4.30;99.90
9450;DHT22;4763;48.370;10.874;2024-01-30T18:14:15;4.30;99.90
9450;DHT22;4763;48.370;10.874;2024-01-30T18:16:42;4.20;99.90
9450;DHT22;4763;48.370;10.874;2024-01-30T18:19:10;4.30;99.90
9450;DHT22;4763;48.370;10.874;2024-01-30T18:21:37;4.20;99.90
9450;DHT22;4763;48.370;10.874;2024-01-30T18:24:04;4.20;99.90
9450;DHT22;4763;48.370;10.874;2024-01-30T18:26:32;4.10;99.90
9450;DHT22;4763;48.370;10.874;2024-01-30T18:28:59;4.10;99.90
9450;DHT22;4763;48.370;10.874;2024-01-30T18:31:27;4.10;99.90
9450;DHT22;4763;48.370;10.874;2024-01-30T18:33:54;4.00;99.90
9450;DHT22;4763;48.370;10.874;2024-01-30T18:36:22;4.00;99.90
9450;DHT22;4763;48.370;10.874;2024-01-30T18:38:50;4.00;99.90
9450;DHT22;4763;48.370;10.874;2024-01-30T18:41:17;4.00;99.90
9450;DHT22;4763;48.370;10.874;2024-01-30T18:43:46;4.00;99.90
9450;DHT22;4763;48.370;10.874;2024-01-30T18:46:13;4.00;99.90
9450;DHT22;4763;48.370;10.874;2024-01-30T18:48:42;3.90;99.90
9450;DHT22;4763;48.370;10.874;2024-01-30T18:51:14;3.90;99.90